Sonic Adventure (DX): Boss Rankings

Records: Times | Rings | Scores | Races | Bosses | Freestyle
Leaders: Times | Rings | Scores | Races | Bosses | Freestyle | Overall
Rank Player Percent Points Date
1 Sonicspeedruner 98.0% 43 08-16-17
2 Gamepro011 96.5% 76 08-16-17
3 chainchumper 94.2% 126 08-16-17
4 DarkPolarNight 94.0% 131 08-16-17
5 Austinf 91.7% 181 08-16-17
6 Jawzun 89.1% 239 08-16-17
7 drminus 88.4% 254 08-16-17
8 ethmar 86.9% 287 08-16-17
9 Parax 86.5% 296 08-16-17
10 ike6252 85.6% 315 08-16-17
11 Coolfansonic 84.1% 350 08-16-17
12 Dashjump 83.6% 359 08-16-17
13 Avento128bits 83.4% 365 08-16-17
14 DarkspinesSonic 79.8% 443 08-16-17
15 TheRealShadnic 78.2% 479 08-16-17
16 THC98 77.6% 493 08-16-17
17 F-Man 75.9% 529 08-16-17
18 Marth 74.6% 558 08-16-17
19 Mariobutch 73.4% 585 08-16-17
20 yoshifan 73.0% 593 08-16-17
21 InferSaime 72.1% 614 08-16-17
22 PfoSonic 71.5% 627 08-16-17
23 HyperSonic7701 69.5% 671 08-16-17
24 RPGnutter 68.5% 692 08-16-17
25 Paragod 67.3% 720 08-16-17
26 mike89 66.8% 730 08-16-17
27 frankoredstrato 66.5% 737 08-16-17
28 sonicam 62.6% 823 08-16-17
29 Groudon199 62.4% 827 08-16-17
30 SadisticMystic 62.2% 831 08-16-17
31 xXMegaManXx 61.6% 845 08-16-17
32 Stefan 60.8% 861 08-16-17
33 Diamond 59.4% 893 08-16-17
34 Combo 57.4% 938 08-16-17
35 bertin 56.9% 948 08-16-17
36 SkyLights 54.4% 1003 08-16-17
37 Arch 48.9% 1125 08-16-17
38 Fr3nZy 48.4% 1136 08-16-17
39 francisco 48.1% 1142 08-16-17
40 OmegaDJ 46.8% 1171 08-16-17
41 Andrea Ritsu 46.5% 1176 08-16-17
42 Omega Rafael Santos 45.0% 1209 08-16-17
43 P1 Pause 44.0% 1231 08-16-17
44 magnum12 41.8% 1281 08-16-17
45 VeritasDL 41.0% 1297 08-16-17
46 Auriman1 38.1% 1362 08-16-17
47 James_Bertolli 35.7% 1414 08-16-17
48 chaos shadow 35.6% 1418 08-16-17
49 Hunters13 34.2% 1448 08-16-17
50 teamblackarms 34.1% 1451 08-16-17
51 FuzZerd 33.1% 1472 08-16-17
52 Drakodan 32.7% 1481 08-16-17
53 Psymar 32.6% 1484 08-16-17
54 Cyan Ryan 32.0% 1496 08-16-17
55 Quartz 32.0% 1497 08-16-17
56 eggFL 31.7% 1502 08-16-17
57 GerbilSoft 31.0% 1519 08-16-17
58 Jerzia 30.7% 1525 08-16-17
59 BigAL49 30.6% 1527 08-16-17
60 elecmouse101 30.2% 1536 08-16-17
61 Thorn 29.9% 1542 08-16-17
62 Webber3000 29.8% 1544 08-16-17
63 Nim 29.6% 1549 08-16-17
63 videogamemaster777 29.6% 1549 08-16-17
65 Turbos 28.1% 1582 08-16-17
66 Mo Player Banned 28.0% 1585 08-16-17
67 Termon 26.8% 1610 08-16-17
68 Dave Cramer 26.2% 1623 08-16-17
69 Flying Fox 25.7% 1634 08-16-17
70 nuckrieg 25.0% 1651 08-16-17
71 buddychaos0415 24.8% 1654 08-16-17
72 Shadow Jacky 23.7% 1679 08-16-17
73 Cream147 21.3% 1732 08-16-17
74 supersonicfan 21.2% 1733 08-16-17
75 MiStEr_ShAoLiN 20.9% 1740 08-16-17
76 NintenDan 20.9% 1741 08-16-17
77 Aitamen 20.5% 1749 08-16-17
77 thewaytodawnnn 20.5% 1749 08-16-17
79 itsPersonnal 20.1% 1759 08-16-17
79 The T 20.1% 1759 08-16-17
81 supersonic465 20.0% 1760 08-16-17
82 Cybrax 20.0% 1761 08-16-17
83 SonicWinDX 19.3% 1777 08-16-17
84 Cruizer 18.8% 1787 08-16-17
85 VMU Player Banned 17.3% 1821 08-16-17
86 Game_Complete 16.9% 1829 08-16-17
87 The Great Lord Mick 16.7% 1833 08-16-17
88 GreatStar 15.7% 1856 08-16-17
89 Questionguy555 15.5% 1860 08-16-17
90 Spinballwizard 15.4% 1862 08-16-17
91 Sondow 14.4% 1883 08-16-17
92 Destroyer121121 13.9% 1894 08-16-17
92 sonicandamy Player Banned 13.9% 1894 08-16-17
94 GarnetPrincess 13.2% 1910 08-16-17
95 Dekuboy 12.8% 1918 08-16-17
96 SonicAD 12.0% 1936 08-16-17
97 Don 11.2% 1954 08-16-17
98 Miles9999 10.9% 1960 08-16-17
99 Siavash Tazari 10.9% 1961 08-16-17
100 SuperBlitzCraig 10.8% 1963 08-16-17
101 Cutiefox 10.1% 1978 08-16-17
102 Psyknux 10.0% 1981 08-16-17
103 knuckles_sonic8 9.7% 1987 08-16-17
104 Werey 9.6% 1990 08-16-17
105 joecoolgames 9.4% 1995 08-16-17
106 EngiNerd 8.9% 2004 08-16-17
106 mauserman 8.9% 2004 08-16-17
108 Badlex727 8.8% 2007 08-16-17
109 Sonic Singularity 8.7% 2010 08-16-17
110 dShadow 8.4% 2015 08-16-17
111 Hipertails12 8.2% 2020 08-16-17
112 Aiko 8.1% 2022 08-16-17
113 N 8.1% 2023 08-16-17
114 Shanekilz 8.0% 2025 08-16-17
115 Therio 7.4% 2037 08-16-17
116 Mastakirby 7.3% 2040 08-16-17
117 TommyeAsY 6.9% 2050 08-16-17
118 TheChaosEmeraIds 6.8% 2052 08-16-17
119 FocusSight64 6.7% 2054 08-16-17
120 sonic29887 6.6% 2056 08-16-17
121 Chao_Fan 6.4% 2060 08-16-17
122 djmat 5.9% 2070 08-16-17
122 tal39h 5.9% 2070 08-16-17
124 HHNNBBHHN 5.9% 2072 08-16-17
124 paulie9990 5.9% 2072 08-16-17
126 Sogeking 5.3% 2084 08-16-17
127 Brian_pso 4.9% 2093 08-16-17
128 Chawkk 4.9% 2094 08-16-17
129 MK 4.6% 2100 08-16-17
130 SilvertheAlmighty 4.5% 2101 08-16-17
131 SpinDashMaster 4.4% 2103 08-16-17
132 MastaToken 4.1% 2111 08-16-17
133 Sonique Hedgehog 3.9% 2116 08-16-17
134 SpiritDragon1995 3.8% 2118 08-16-17
135 KinkyCadence 3.5% 2124 08-16-17
136 PsyBorg 3.4% 2127 08-16-17
137 Mad Andy 3.3% 2128 08-16-17
138 FSSRandomvids 3.2% 2130 08-16-17
139 JamminX42 2.9% 2137 08-16-17
139 Xia 2.9% 2137 08-16-17
141 koinu93 2.9% 2138 08-16-17
141 Rolken 2.9% 2138 08-16-17
143 andres430 2.6% 2143 08-16-17
144 dabestgamer 2.2% 2152 08-16-17
145 crazy1993 2.2% 2153 08-16-17
145 shadowblast63 Player Banned 2.2% 2153 08-16-17
147 Illidan 1.9% 2159 08-16-17
147 Richied 1.9% 2159 08-16-17
149 DanielTheFalcon 1.7% 2163 08-16-17
149 gamer1245 1.7% 2163 08-16-17
151 Iwannabelink 1.6% 2166 08-16-17
152 oTaiIilLsS 1.4% 2171 08-16-17
153 niscool 1.3% 2172 08-16-17
154 soniccoloursunleashed 1.3% 2173 08-16-17
155 Redd 1.1% 2176 08-16-17
156 ieatatsonic 1.1% 2177 08-16-17
157 LinksDarkArrows 0.9% 2182 08-16-17
158 Lil_Dude 0.8% 2184 08-16-17
159 Cbwade15 0.4% 2192 08-16-17
160 neaolas 0.3% 2194 08-16-17
161 BlankTH 0.2% 2196 08-16-17
161 Heroes_Hater 0.2% 2196 08-16-17
163 S-MS32X-S 0.0% 2200 08-16-17
164 KaM Mark MaK 0.0% 2202 08-16-17
164 MegabombBlade 0.0% 2202 08-16-17

This page is using the New Data Table System. [FUTURE]

Game ID: 3 | Category ID: 6
Hits: 4,656 | Hits This Month: 32 | DB Calls: 24 | Mem Usage: 5.36 MB | Time: 0.16s | Printable

The Sonic Center v3.9
Copyright 2003-2011 by The Sonic Center Team.